sensor_id;sensor_type;location;lat;lon;timestamp;P1;durP1;ratioP1;P2;durP2;ratioP2
8100;SDS011;4093;53.470;9.832;2024-02-16T00:01:09;4.13;;;3.37;;
8100;SDS011;4093;53.470;9.832;2024-02-16T00:03:37;5.33;;;4.03;;
8100;SDS011;4093;53.470;9.832;2024-02-16T00:06:05;6.30;;;3.50;;
8100;SDS011;4093;53.470;9.832;2024-02-16T00:08:33;4.13;;;3.23;;
8100;SDS011;4093;53.470;9.832;2024-02-16T00:11:05;6.27;;;3.03;;
8100;SDS011;4093;53.470;9.832;2024-02-16T00:13:33;4.27;;;2.87;;
8100;SDS011;4093;53.470;9.832;2024-02-16T00:16:00;7.70;;;3.70;;
8100;SDS011;4093;53.470;9.832;2024-02-16T00:18:30;4.87;;;3.20;;
8100;SDS011;4093;53.470;9.832;2024-02-16T00:20:58;4.30;;;3.30;;
8100;SDS011;4093;53.470;9.832;2024-02-16T00:23:25;3.87;;;2.80;;
8100;SDS011;4093;53.470;9.832;2024-02-16T00:25:53;4.63;;;2.93;;
8100;SDS011;4093;53.470;9.832;2024-02-16T00:28:21;7.03;;;3.37;;
8100;SDS011;4093;53.470;9.832;2024-02-16T00:30:49;4.80;;;2.90;;
8100;SDS011;4093;53.470;9.832;2024-02-16T00:33:17;5.30;;;2.73;;
8100;SDS011;4093;53.470;9.832;2024-02-16T00:35:46;3.37;;;2.60;;
8100;SDS011;4093;53.470;9.832;2024-02-16T00:38:16;5.50;;;3.20;;
8100;SDS011;4093;53.470;9.832;2024-02-16T00:40:43;5.83;;;3.23;;
8100;SDS011;4093;53.470;9.832;2024-02-16T00:43:11;5.17;;;2.87;;
8100;SDS011;4093;53.470;9.832;2024-02-16T00:45:39;7.13;;;3.80;;
8100;SDS011;4093;53.470;9.832;2024-02-16T00:48:10;5.13;;;3.17;;
8100;SDS011;4093;53.470;9.832;2024-02-16T00:50:39;3.53;;;3.03;;
8100;SDS011;4093;53.470;9.832;2024-02-16T00:53:10;5.97;;;3.07;;
8100;SDS011;4093;53.470;9.832;2024-02-16T00:55:38;3.07;;;2.77;;
8100;SDS011;4093;53.470;9.832;2024-02-16T00:58:08;5.50;;;3.50;;
8100;SDS011;4093;53.470;9.832;2024-02-16T01:00:35;3.70;;;3.00;;
8100;SDS011;4093;53.470;9.832;2024-02-16T01:03:04;5.43;;;3.17;;
8100;SDS011;4093;53.470;9.832;2024-02-16T01:05:32;5.67;;;2.90;;
8100;SDS011;4093;53.470;9.832;2024-02-16T01:08:00;2.93;;;2.60;;
8100;SDS011;4093;53.470;9.832;2024-02-16T01:10:29;5.87;;;3.20;;
8100;SDS011;4093;53.470;9.832;2024-02-16T01:12:56;3.80;;;2.90;;
8100;SDS011;4093;53.470;9.832;2024-02-16T01:15:24;4.33;;;3.03;;
8100;SDS011;4093;53.470;9.832;2024-02-16T01:17:52;5.17;;;3.10;;
8100;SDS011;4093;53.470;9.832;2024-02-16T01:20:20;4.27;;;3.20;;
8100;SDS011;4093;53.470;9.832;2024-02-16T01:22:48;3.90;;;2.90;;
8100;SDS011;4093;53.470;9.832;2024-02-16T01:25:16;3.23;;;2.93;;
8100;SDS011;4093;53.470;9.832;2024-02-16T01:27:45;6.70;;;3.10;;
8100;SDS011;4093;53.470;9.832;2024-02-16T01:30:13;5.00;;;3.30;;
8100;SDS011;4093;53.470;9.832;2024-02-16T01:32:41;8.47;;;3.30;;
8100;SDS011;4093;53.470;9.832;2024-02-16T01:35:09;4.73;;;2.83;;
8100;SDS011;4093;53.470;9.832;2024-02-16T01:37:38;4.63;;;3.20;;
8100;SDS011;4093;53.470;9.832;2024-02-16T01:40:07;6.90;;;3.27;;
8100;SDS011;4093;53.470;9.832;2024-02-16T01:42:40;4.47;;;2.70;;
8100;SDS011;4093;53.470;9.832;2024-02-16T01:45:10;9.17;;;3.10;;
8100;SDS011;4093;53.470;9.832;2024-02-16T01:47:39;4.53;;;3.00;;
8100;SDS011;4093;53.470;9.832;2024-02-16T01:50:09;6.00;;;3.20;;
8100;SDS011;4093;53.470;9.832;2024-02-16T01:52:38;4.27;;;2.83;;
8100;SDS011;4093;53.470;9.832;2024-02-16T01:55:06;6.10;;;3.20;;
8100;SDS011;4093;53.470;9.832;2024-02-16T01:57:35;5.03;;;3.03;;
8100;SDS011;4093;53.470;9.832;2024-02-16T02:00:04;5.60;;;2.87;;
8100;SDS011;4093;53.470;9.832;2024-02-16T02:02:35;5.57;;;3.00;;
8100;SDS011;4093;53.470;9.832;2024-02-16T02:05:04;5.27;;;3.00;;
8100;SDS011;4093;53.470;9.832;2024-02-16T02:07:32;4.43;;;3.00;;
8100;SDS011;4093;53.470;9.832;2024-02-16T02:10:00;5.60;;;2.93;;
8100;SDS011;4093;53.470;9.832;2024-02-16T02:12:29;4.23;;;2.80;;
8100;SDS011;4093;53.470;9.832;2024-02-16T02:14:57;4.40;;;3.03;;
8100;SDS011;4093;53.470;9.832;2024-02-16T02:17:25;5.97;;;3.20;;
8100;SDS011;4093;53.470;9.832;2024-02-16T02:19:54;7.00;;;3.00;;
8100;SDS011;4093;53.470;9.832;2024-02-16T02:22:23;4.13;;;2.90;;
8100;SDS011;4093;53.470;9.832;2024-02-16T02:24:53;3.67;;;3.10;;
8100;SDS011;4093;53.470;9.832;2024-02-16T02:27:22;5.07;;;3.23;;
8100;SDS011;4093;53.470;9.832;2024-02-16T02:29:50;5.80;;;3.53;;
8100;SDS011;4093;53.470;9.832;2024-02-16T02:32:17;4.27;;;2.93;;
8100;SDS011;4093;53.470;9.832;2024-02-16T02:34:45;4.93;;;3.40;;
8100;SDS011;4093;53.470;9.832;2024-02-16T02:37:13;7.70;;;3.40;;
8100;SDS011;4093;53.470;9.832;2024-02-16T02:39:42;6.00;;;3.30;;
8100;SDS011;4093;53.470;9.832;2024-02-16T02:42:10;6.47;;;3.10;;
8100;SDS011;4093;53.470;9.832;2024-02-16T02:44:38;7.07;;;3.10;;
8100;SDS011;4093;53.470;9.832;2024-02-16T02:47:06;5.23;;;3.00;;
8100;SDS011;4093;53.470;9.832;2024-02-16T02:49:34;4.37;;;3.40;;
8100;SDS011;4093;53.470;9.832;2024-02-16T02:52:02;6.73;;;2.97;;
8100;SDS011;4093;53.470;9.832;2024-02-16T02:54:30;5.80;;;3.27;;
8100;SDS011;4093;53.470;9.832;2024-02-16T02:56:59;3.53;;;2.77;;
8100;SDS011;4093;53.470;9.832;2024-02-16T02:59:28;4.13;;;2.93;;
8100;SDS011;4093;53.470;9.832;2024-02-16T03:01:56;7.17;;;3.43;;
8100;SDS011;4093;53.470;9.832;2024-02-16T03:04:24;6.10;;;3.07;;
8100;SDS011;4093;53.470;9.832;2024-02-16T03:06:52;4.47;;;2.80;;
8100;SDS011;4093;53.470;9.832;2024-02-16T03:09:20;5.17;;;3.13;;
8100;SDS011;4093;53.470;9.832;2024-02-16T03:11:49;5.80;;;3.47;;
8100;SDS011;4093;53.470;9.832;2024-02-16T03:14:18;5.57;;;3.10;;
8100;SDS011;4093;53.470;9.832;2024-02-16T03:16:46;3.10;;;2.80;;
8100;SDS011;4093;53.470;9.832;2024-02-16T03:19:14;3.37;;;2.70;;
8100;SDS011;4093;53.470;9.832;2024-02-16T03:21:42;4.40;;;3.03;;
8100;SDS011;4093;53.470;9.832;2024-02-16T03:24:10;3.77;;;3.30;;
8100;SDS011;4093;53.470;9.832;2024-02-16T03:26:38;4.87;;;2.77;;
8100;SDS011;4093;53.470;9.832;2024-02-16T03:29:06;6.03;;;3.00;;
8100;SDS011;4093;53.470;9.832;2024-02-16T03:31:35;8.47;;;3.33;;
8100;SDS011;4093;53.470;9.832;2024-02-16T03:34:03;5.13;;;3.00;;
8100;SDS011;4093;53.470;9.832;2024-02-16T03:36:31;5.50;;;3.43;;
8100;SDS011;4093;53.470;9.832;2024-02-16T03:38:59;4.97;;;3.07;;
8100;SDS011;4093;53.470;9.832;2024-02-16T03:41:27;5.17;;;3.00;;
8100;SDS011;4093;53.470;9.832;2024-02-16T03:43:55;7.53;;;3.30;;
8100;SDS011;4093;53.470;9.832;2024-02-16T03:46:25;3.93;;;2.90;;
8100;SDS011;4093;53.470;9.832;2024-02-16T03:48:54;5.90;;;3.07;;
8100;SDS011;4093;53.470;9.832;2024-02-16T03:51:22;4.07;;;3.07;;
8100;SDS011;4093;53.470;9.832;2024-02-16T03:53:49;4.50;;;3.07;;
8100;SDS011;4093;53.470;9.832;2024-02-16T03:56:20;6.07;;;3.30;;
8100;SDS011;4093;53.470;9.832;2024-02-16T03:58:48;6.23;;;3.57;;
8100;SDS011;4093;53.470;9.832;2024-02-16T04:01:16;6.80;;;3.57;;
8100;SDS011;4093;53.470;9.832;2024-02-16T04:03:44;3.80;;;2.77;;
8100;SDS011;4093;53.470;9.832;2024-02-16T04:06:13;3.40;;;2.57;;
8100;SDS011;4093;53.470;9.832;2024-02-16T04:08:41;4.57;;;3.10;;
8100;SDS011;4093;53.470;9.832;2024-02-16T04:11:10;5.03;;;3.00;;
8100;SDS011;4093;53.470;9.832;2024-02-16T04:13:38;4.17;;;2.87;;
8100;SDS011;4093;53.470;9.832;2024-02-16T04:16:06;6.77;;;3.00;;
8100;SDS011;4093;53.470;9.832;2024-02-16T04:18:34;8.20;;;3.00;;
8100;SDS011;4093;53.470;9.832;2024-02-16T04:21:02;8.10;;;3.70;;
8100;SDS011;4093;53.470;9.832;2024-02-16T04:23:31;5.77;;;2.80;;
8100;SDS011;4093;53.470;9.832;2024-02-16T04:25:59;3.70;;;2.60;;
8100;SDS011;4093;53.470;9.832;2024-02-16T04:28:27;4.80;;;3.20;;
8100;SDS011;4093;53.470;9.832;2024-02-16T04:30:55;4.43;;;2.93;;
8100;SDS011;4093;53.470;9.832;2024-02-16T04:33:22;6.07;;;2.67;;
8100;SDS011;4093;53.470;9.832;2024-02-16T04:35:50;3.73;;;2.80;;
8100;SDS011;4093;53.470;9.832;2024-02-16T04:38:18;4.30;;;3.13;;
8100;SDS011;4093;53.470;9.832;2024-02-16T04:40:48;4.57;;;2.97;;
8100;SDS011;4093;53.470;9.832;2024-02-16T04:43:16;5.00;;;3.17;;
8100;SDS011;4093;53.470;9.832;2024-02-16T04:45:43;4.73;;;3.00;;
8100;SDS011;4093;53.470;9.832;2024-02-16T04:48:11;4.00;;;2.83;;
8100;SDS011;4093;53.470;9.832;2024-02-16T04:50:39;5.63;;;3.17;;
8100;SDS011;4093;53.470;9.832;2024-02-16T04:53:07;4.03;;;2.57;;
8100;SDS011;4093;53.470;9.832;2024-02-16T04:55:35;6.13;;;3.00;;
8100;SDS011;4093;53.470;9.832;2024-02-16T04:58:04;4.00;;;2.80;;
8100;SDS011;4093;53.470;9.832;2024-02-16T05:00:35;3.97;;;2.63;;
8100;SDS011;4093;53.470;9.832;2024-02-16T05:03:04;4.10;;;2.70;;
8100;SDS011;4093;53.470;9.832;2024-02-16T05:05:32;6.03;;;2.73;;
8100;SDS011;4093;53.470;9.832;2024-02-16T05:08:00;6.63;;;3.10;;
8100;SDS011;4093;53.470;9.832;2024-02-16T05:10:28;3.73;;;2.90;;
8100;SDS011;4093;53.470;9.832;2024-02-16T05:12:56;6.23;;;2.50;;
8100;SDS011;4093;53.470;9.832;2024-02-16T05:15:26;5.33;;;2.70;;
8100;SDS011;4093;53.470;9.832;2024-02-16T05:17:54;5.60;;;3.27;;
8100;SDS011;4093;53.470;9.832;2024-02-16T05:20:22;3.33;;;2.80;;
8100;SDS011;4093;53.470;9.832;2024-02-16T05:22:50;5.40;;;2.80;;
8100;SDS011;4093;53.470;9.832;2024-02-16T05:25:18;5.03;;;2.90;;
8100;SDS011;4093;53.470;9.832;2024-02-16T05:27:46;4.50;;;3.00;;
8100;SDS011;4093;53.470;9.832;2024-02-16T05:30:14;3.90;;;2.63;;
8100;SDS011;4093;53.470;9.832;2024-02-16T05:32:44;4.97;;;2.80;;
8100;SDS011;4093;53.470;9.832;2024-02-16T05:35:12;5.80;;;2.97;;
8100;SDS011;4093;53.470;9.832;2024-02-16T05:37:42;5.20;;;2.77;;
8100;SDS011;4093;53.470;9.832;2024-02-16T05:40:11;4.13;;;2.50;;
8100;SDS011;4093;53.470;9.832;2024-02-16T05:42:49;3.50;;;2.67;;
8100;SDS011;4093;53.470;9.832;2024-02-16T05:45:18;4.70;;;2.70;;
8100;SDS011;4093;53.470;9.832;2024-02-16T05:47:49;4.43;;;2.80;;
8100;SDS011;4093;53.470;9.832;2024-02-16T05:50:19;4.73;;;3.07;;
8100;SDS011;4093;53.470;9.832;2024-02-16T05:52:49;5.20;;;3.07;;
8100;SDS011;4093;53.470;9.832;2024-02-16T05:55:18;5.13;;;2.77;;
8100;SDS011;4093;53.470;9.832;2024-02-16T05:57:46;4.87;;;2.70;;
8100;SDS011;4093;53.470;9.832;2024-02-16T06:00:14;4.50;;;2.57;;
8100;SDS011;4093;53.470;9.832;2024-02-16T06:02:43;4.47;;;2.60;;
8100;SDS011;4093;53.470;9.832;2024-02-16T06:05:12;6.27;;;3.10;;
8100;SDS011;4093;53.470;9.832;2024-02-16T06:07:40;3.17;;;2.43;;
8100;SDS011;4093;53.470;9.832;2024-02-16T06:10:08;3.57;;;2.63;;
8100;SDS011;4093;53.470;9.832;2024-02-16T06:12:38;4.17;;;2.60;;
8100;SDS011;4093;53.470;9.832;2024-02-16T06:15:07;3.63;;;2.70;;
8100;SDS011;4093;53.470;9.832;2024-02-16T06:17:35;4.90;;;2.83;;
8100;SDS011;4093;53.470;9.832;2024-02-16T06:20:04;9.33;;;2.97;;
8100;SDS011;4093;53.470;9.832;2024-02-16T06:22:37;5.23;;;2.73;;
8100;SDS011;4093;53.470;9.832;2024-02-16T06:25:05;3.93;;;2.70;;
8100;SDS011;4093;53.470;9.832;2024-02-16T06:27:33;3.97;;;2.43;;
8100;SDS011;4093;53.470;9.832;2024-02-16T06:30:01;6.43;;;2.80;;
8100;SDS011;4093;53.470;9.832;2024-02-16T06:32:30;3.00;;;2.57;;
8100;SDS011;4093;53.470;9.832;2024-02-16T06:34:58;4.17;;;2.77;;
8100;SDS011;4093;53.470;9.832;2024-02-16T06:37:26;6.00;;;3.10;;
8100;SDS011;4093;53.470;9.832;2024-02-16T06:39:55;4.17;;;2.47;;
8100;SDS011;4093;53.470;9.832;2024-02-16T06:42:23;4.03;;;2.50;;
8100;SDS011;4093;53.470;9.832;2024-02-16T06:44:51;4.23;;;2.57;;
8100;SDS011;4093;53.470;9.832;2024-02-16T06:47:18;2.47;;;2.27;;
8100;SDS011;4093;53.470;9.832;2024-02-16T06:49:46;4.03;;;2.50;;
8100;SDS011;4093;53.470;9.832;2024-02-16T06:52:14;4.90;;;2.70;;
8100;SDS011;4093;53.470;9.832;2024-02-16T06:54:42;2.73;;;2.50;;
8100;SDS011;4093;53.470;9.832;2024-02-16T06:57:12;4.47;;;2.70;;
8100;SDS011;4093;53.470;9.832;2024-02-16T06:59:39;3.13;;;2.70;;
8100;SDS011;4093;53.470;9.832;2024-02-16T07:02:08;2.77;;;2.50;;
8100;SDS011;4093;53.470;9.832;2024-02-16T07:04:39;3.60;;;2.67;;
8100;SDS011;4093;53.470;9.832;2024-02-16T07:07:07;4.93;;;2.60;;
8100;SDS011;4093;53.470;9.832;2024-02-16T07:09:35;4.23;;;2.33;;
8100;SDS011;4093;53.470;9.832;2024-02-16T07:12:06;3.43;;;2.50;;
8100;SDS011;4093;53.470;9.832;2024-02-16T07:14:36;2.77;;;2.30;;
8100;SDS011;4093;53.470;9.832;2024-02-16T07:17:03;3.87;;;2.60;;
8100;SDS011;4093;53.470;9.832;2024-02-16T07:19:35;3.93;;;2.67;;
8100;SDS011;4093;53.470;9.832;2024-02-16T07:22:04;2.67;;;2.37;;
8100;SDS011;4093;53.470;9.832;2024-02-16T07:24:33;2.83;;;2.50;;
8100;SDS011;4093;53.470;9.832;2024-02-16T07:27:01;5.10;;;2.70;;
8100;SDS011;4093;53.470;9.832;2024-02-16T07:29:29;3.10;;;2.63;;
8100;SDS011;4093;53.470;9.832;2024-02-16T07:31:58;3.00;;;2.30;;
8100;SDS011;4093;53.470;9.832;2024-02-16T07:34:26;3.00;;;2.43;;
8100;SDS011;4093;53.470;9.832;2024-02-16T07:36:55;2.97;;;2.30;;
8100;SDS011;4093;53.470;9.832;2024-02-16T07:39:23;4.27;;;2.37;;
8100;SDS011;4093;53.470;9.832;2024-02-16T07:41:51;6.03;;;2.77;;
8100;SDS011;4093;53.470;9.832;2024-02-16T07:44:19;2.60;;;2.23;;
8100;SDS011;4093;53.470;9.832;2024-02-16T07:46:47;4.20;;;2.63;;
8100;SDS011;4093;53.470;9.832;2024-02-16T07:49:18;3.87;;;2.30;;
8100;SDS011;4093;53.470;9.832;2024-02-16T07:51:46;3.17;;;2.67;;
8100;SDS011;4093;53.470;9.832;2024-02-16T07:54:14;4.23;;;2.40;;
8100;SDS011;4093;53.470;9.832;2024-02-16T07:56:42;3.17;;;2.30;;
8100;SDS011;4093;53.470;9.832;2024-02-16T07:59:10;5.03;;;2.50;;
8100;SDS011;4093;53.470;9.832;2024-02-16T08:01:38;4.27;;;2.57;;
8100;SDS011;4093;53.470;9.832;2024-02-16T08:04:06;3.23;;;2.63;;
8100;SDS011;4093;53.470;9.832;2024-02-16T08:06:36;2.57;;;2.20;;
8100;SDS011;4093;53.470;9.832;2024-02-16T08:09:04;5.20;;;2.60;;
8100;SDS011;4093;53.470;9.832;2024-02-16T08:11:32;3.97;;;2.30;;
8100;SDS011;4093;53.470;9.832;2024-02-16T08:14:00;3.07;;;2.30;;
8100;SDS011;4093;53.470;9.832;2024-02-16T08:16:29;4.03;;;2.37;;
8100;SDS011;4093;53.470;9.832;2024-02-16T08:18:57;4.07;;;2.30;;
8100;SDS011;4093;53.470;9.832;2024-02-16T08:21:25;3.47;;;2.30;;
8100;SDS011;4093;53.470;9.832;2024-02-16T08:23:54;5.27;;;2.90;;
8100;SDS011;4093;53.470;9.832;2024-02-16T08:26:21;3.47;;;2.53;;
8100;SDS011;4093;53.470;9.832;2024-02-16T08:28:49;3.13;;;2.53;;
8100;SDS011;4093;53.470;9.832;2024-02-16T08:31:17;3.97;;;2.40;;
8100;SDS011;4093;53.470;9.832;2024-02-16T08:33:45;3.67;;;2.70;;
8100;SDS011;4093;53.470;9.832;2024-02-16T08:36:14;6.47;;;2.80;;
8100;SDS011;4093;53.470;9.832;2024-02-16T08:38:42;3.47;;;2.63;;
8100;SDS011;4093;53.470;9.832;2024-02-16T08:41:11;3.77;;;2.77;;
8100;SDS011;4093;53.470;9.832;2024-02-16T08:43:39;3.70;;;2.70;;
8100;SDS011;4093;53.470;9.832;2024-02-16T08:46:07;2.77;;;2.50;;
8100;SDS011;4093;53.470;9.832;2024-02-16T08:48:35;6.17;;;2.90;;
8100;SDS011;4093;53.470;9.832;2024-02-16T08:51:03;3.03;;;2.53;;
8100;SDS011;4093;53.470;9.832;2024-02-16T08:53:32;4.83;;;2.63;;
8100;SDS011;4093;53.470;9.832;2024-02-16T08:56:00;5.03;;;3.13;;
8100;SDS011;4093;53.470;9.832;2024-02-16T08:58:29;3.30;;;2.73;;
8100;SDS011;4093;53.470;9.832;2024-02-16T09:00:57;3.03;;;2.40;;
8100;SDS011;4093;53.470;9.832;2024-02-16T09:03:25;4.53;;;2.70;;
8100;SDS011;4093;53.470;9.832;2024-02-16T09:05:53;5.27;;;2.70;;
8100;SDS011;4093;53.470;9.832;2024-02-16T09:08:21;5.63;;;2.90;;
8100;SDS011;4093;53.470;9.832;2024-02-16T09:10:49;4.13;;;2.60;;
8100;SDS011;4093;53.470;9.832;2024-02-16T09:13:17;4.83;;;2.60;;
8100;SDS011;4093;53.470;9.832;2024-02-16T09:15:59;4.10;;;3.27;;
8100;SDS011;4093;53.470;9.832;2024-02-16T09:18:27;4.23;;;2.70;;
8100;SDS011;4093;53.470;9.832;2024-02-16T09:20:56;3.50;;;2.70;;
8100;SDS011;4093;53.470;9.832;2024-02-16T09:23:24;2.70;;;2.30;;
8100;SDS011;4093;53.470;9.832;2024-02-16T09:25:51;4.47;;;2.80;;
8100;SDS011;4093;53.470;9.832;2024-02-16T09:28:21;4.13;;;2.70;;
8100;SDS011;4093;53.470;9.832;2024-02-16T09:30:55;4.10;;;2.70;;
8100;SDS011;4093;53.470;9.832;2024-02-16T09:33:25;3.70;;;2.57;;
8100;SDS011;4093;53.470;9.832;2024-02-16T09:35:54;3.83;;;2.60;;
8100;SDS011;4093;53.470;9.832;2024-02-16T09:38:22;5.57;;;2.43;;
8100;SDS011;4093;53.470;9.832;2024-02-16T09:40:50;4.30;;;2.43;;
8100;SDS011;4093;53.470;9.832;2024-02-16T09:43:24;3.17;;;2.40;;
8100;SDS011;4093;53.470;9.832;2024-02-16T09:45:54;5.10;;;2.57;;
8100;SDS011;4093;53.470;9.832;2024-02-16T09:48:22;2.80;;;2.23;;
8100;SDS011;4093;53.470;9.832;2024-02-16T09:50:53;6.47;;;2.53;;
8100;SDS011;4093;53.470;9.832;2024-02-16T09:53:23;9.17;;;2.87;;
8100;SDS011;4093;53.470;9.832;2024-02-16T09:55:52;2.70;;;2.50;;
8100;SDS011;4093;53.470;9.832;2024-02-16T09:58:20;4.57;;;2.60;;
8100;SDS011;4093;53.470;9.832;2024-02-16T10:00:49;5.60;;;2.50;;
8100;SDS011;4093;53.470;9.832;2024-02-16T10:03:22;4.27;;;2.67;;
8100;SDS011;4093;53.470;9.832;2024-02-16T10:06:03;3.53;;;2.30;;
8100;SDS011;4093;53.470;9.832;2024-02-16T10:08:33;3.33;;;2.40;;
8100;SDS011;4093;53.470;9.832;2024-02-16T10:11:01;3.37;;;2.37;;
8100;SDS011;4093;53.470;9.832;2024-02-16T10:13:30;2.77;;;2.20;;
8100;SDS011;4093;53.470;9.832;2024-02-16T10:16:04;3.77;;;2.27;;
8100;SDS011;4093;53.470;9.832;2024-02-16T10:18:36;3.23;;;2.37;;
8100;SDS011;4093;53.470;9.832;2024-02-16T10:21:05;4.25;;;2.53;;
8100;SDS011;4093;53.470;9.832;2024-02-16T10:23:34;5.93;;;2.57;;
8100;SDS011;4093;53.470;9.832;2024-02-16T10:26:09;3.83;;;2.38;;
8100;SDS011;4093;53.470;9.832;2024-02-16T10:28:37;2.72;;;2.38;;
8100;SDS011;4093;53.470;9.832;2024-02-16T10:31:05;3.03;;;2.42;;
8100;SDS011;4093;53.470;9.832;2024-02-16T10:33:34;6.30;;;2.50;;
8100;SDS011;4093;53.470;9.832;2024-02-16T10:36:04;3.03;;;2.40;;
8100;SDS011;4093;53.470;9.832;2024-02-16T10:38:34;3.83;;;2.30;;
8100;SDS011;4093;53.470;9.832;2024-02-16T10:41:04;5.35;;;2.42;;
8100;SDS011;4093;53.470;9.832;2024-02-16T10:43:33;2.40;;;2.20;;
8100;SDS011;4093;53.470;9.832;2024-02-16T10:46:01;5.50;;;2.47;;
8100;SDS011;4093;53.470;9.832;2024-02-16T10:48:29;2.93;;;2.50;;
8100;SDS011;4093;53.470;9.832;2024-02-16T10:50:57;4.60;;;2.42;;
8100;SDS011;4093;53.470;9.832;2024-02-16T10:53:27;4.72;;;2.50;;
8100;SDS011;4093;53.470;9.832;2024-02-16T10:55:57;4.38;;;2.55;;
8100;SDS011;4093;53.470;9.832;2024-02-16T10:58:26;4.22;;;2.60;;
8100;SDS011;4093;53.470;9.832;2024-02-16T11:00:55;5.07;;;2.80;;
8100;SDS011;4093;53.470;9.832;2024-02-16T11:03:25;4.30;;;2.90;;
8100;SDS011;4093;53.470;9.832;2024-02-16T11:05:54;4.47;;;2.40;;
8100;SDS011;4093;53.470;9.832;2024-02-16T11:08:24;4.78;;;2.75;;
8100;SDS011;4093;53.470;9.832;2024-02-16T11:10:59;4.57;;;3.60;;
8100;SDS011;4093;53.470;9.832;2024-02-16T11:13:32;4.13;;;2.40;;
8100;SDS011;4093;53.470;9.832;2024-02-16T11:16:00;2.60;;;2.40;;
8100;SDS011;4093;53.470;9.832;2024-02-16T11:18:29;6.57;;;3.30;;
8100;SDS011;4093;53.470;9.832;2024-02-16T11:21:01;6.10;;;2.77;;
8100;SDS011;4093;53.470;9.832;2024-02-16T11:23:30;5.30;;;2.80;;
8100;SDS011;4093;53.470;9.832;2024-02-16T11:26:03;4.20;;;2.60;;
8100;SDS011;4093;53.470;9.832;2024-02-16T11:28:35;3.50;;;2.60;;
8100;SDS011;4093;53.470;9.832;2024-02-16T11:31:03;2.83;;;2.50;;
8100;SDS011;4093;53.470;9.832;2024-02-16T11:33:32;2.90;;;2.60;;
8100;SDS011;4093;53.470;9.832;2024-02-16T11:36:01;7.03;;;3.00;;
8100;SDS011;4093;53.470;9.832;2024-02-16T11:38:31;4.90;;;2.70;;
8100;SDS011;4093;53.470;9.832;2024-02-16T11:41:00;6.93;;;3.13;;
8100;SDS011;4093;53.470;9.832;2024-02-16T11:43:31;3.97;;;2.90;;
8100;SDS011;4093;53.470;9.832;2024-02-16T11:46:10;4.10;;;2.73;;
8100;SDS011;4093;53.470;9.832;2024-02-16T11:48:38;4.23;;;2.90;;
8100;SDS011;4093;53.470;9.832;2024-02-16T11:51:06;4.53;;;2.97;;
8100;SDS011;4093;53.470;9.832;2024-02-16T11:53:34;7.05;;;2.90;;
8100;SDS011;4093;53.470;9.832;2024-02-16T11:56:02;5.15;;;3.03;;
8100;SDS011;4093;53.470;9.832;2024-02-16T11:58:32;6.07;;;3.10;;
8100;SDS011;4093;53.470;9.832;2024-02-16T12:00:59;4.72;;;3.10;;
8100;SDS011;4093;53.470;9.832;2024-02-16T12:03:29;6.65;;;3.33;;
8100;SDS011;4093;53.470;9.832;2024-02-16T12:05:58;6.75;;;3.35;;
8100;SDS011;4093;53.470;9.832;2024-02-16T12:08:31;6.50;;;3.25;;
8100;SDS011;4093;53.470;9.832;2024-02-16T12:11:00;5.35;;;3.33;;
8100;SDS011;4093;53.470;9.832;2024-02-16T12:13:29;4.03;;;3.38;;
8100;SDS011;4093;53.470;9.832;2024-02-16T12:15:59;4.70;;;3.35;;
8100;SDS011;4093;53.470;9.832;2024-02-16T12:18:29;4.80;;;3.05;;
8100;SDS011;4093;53.470;9.832;2024-02-16T12:20:58;4.35;;;3.03;;
8100;SDS011;4093;53.470;9.832;2024-02-16T12:23:27;6.43;;;3.28;;
8100;SDS011;4093;53.470;9.832;2024-02-16T12:25:57;4.80;;;3.67;;
8100;SDS011;4093;53.470;9.832;2024-02-16T12:28:25;5.47;;;3.28;;
8100;SDS011;4093;53.470;9.832;2024-02-16T12:30:56;6.18;;;3.67;;
8100;SDS011;4093;53.470;9.832;2024-02-16T12:33:28;4.88;;;2.92;;
8100;SDS011;4093;53.470;9.832;2024-02-16T12:35:57;5.90;;;3.60;;
8100;SDS011;4093;53.470;9.832;2024-02-16T12:38:26;6.27;;;3.60;;
8100;SDS011;4093;53.470;9.832;2024-02-16T12:40:54;5.78;;;3.53;;
8100;SDS011;4093;53.470;9.832;2024-02-16T12:43:22;4.82;;;3.60;;
8100;SDS011;4093;53.470;9.832;2024-02-16T12:45:49;3.65;;;3.33;;
8100;SDS011;4093;53.470;9.832;2024-02-16T12:48:19;6.78;;;3.25;;
8100;SDS011;4093;53.470;9.832;2024-02-16T12:50:47;4.38;;;3.50;;
8100;SDS011;4093;53.470;9.832;2024-02-16T12:53:15;8.23;;;3.72;;
8100;SDS011;4093;53.470;9.832;2024-02-16T12:55:43;7.07;;;4.05;;
8100;SDS011;4093;53.470;9.832;2024-02-16T12:58:11;6.82;;;3.65;;
8100;SDS011;4093;53.470;9.832;2024-02-16T13:00:39;8.32;;;4.20;;
8100;SDS011;4093;53.470;9.832;2024-02-16T13:03:07;5.45;;;3.80;;
8100;SDS011;4093;53.470;9.832;2024-02-16T13:05:36;6.32;;;4.38;;
8100;SDS011;4093;53.470;9.832;2024-02-16T13:08:05;5.20;;;3.53;;
8100;SDS011;4093;53.470;9.832;2024-02-16T13:10:33;3.53;;;3.20;;
8100;SDS011;4093;53.470;9.832;2024-02-16T13:13:01;8.33;;;4.60;;
8100;SDS011;4093;53.470;9.832;2024-02-16T13:15:29;6.40;;;3.47;;
8100;SDS011;4093;53.470;9.832;2024-02-16T13:17:57;6.83;;;4.13;;
8100;SDS011;4093;53.470;9.832;2024-02-16T13:20:25;8.27;;;4.10;;
8100;SDS011;4093;53.470;9.832;2024-02-16T13:22:54;5.72;;;3.45;;
8100;SDS011;4093;53.470;9.832;2024-02-16T13:25:22;5.53;;;3.47;;
8100;SDS011;4093;53.470;9.832;2024-02-16T13:27:50;7.93;;;3.90;;
8100;SDS011;4093;53.470;9.832;2024-02-16T13:30:17;7.88;;;4.35;;
8100;SDS011;4093;53.470;9.832;2024-02-16T13:32:45;5.53;;;3.90;;
8100;SDS011;4093;53.470;9.832;2024-02-16T13:35:13;5.68;;;4.10;;
8100;SDS011;4093;53.470;9.832;2024-02-16T13:37:46;4.80;;;4.28;;
8100;SDS011;4093;53.470;9.832;2024-02-16T13:40:15;8.77;;;4.10;;
8100;SDS011;4093;53.470;9.832;2024-02-16T13:42:44;7.13;;;4.05;;
8100;SDS011;4093;53.470;9.832;2024-02-16T13:45:12;6.20;;;4.30;;
8100;SDS011;4093;53.470;9.832;2024-02-16T13:47:40;7.63;;;4.18;;
8100;SDS011;4093;53.470;9.832;2024-02-16T13:50:08;5.50;;;3.95;;
8100;SDS011;4093;53.470;9.832;2024-02-16T13:52:37;6.30;;;4.37;;
8100;SDS011;4093;53.470;9.832;2024-02-16T13:55:05;5.30;;;4.03;;
8100;SDS011;4093;53.470;9.832;2024-02-16T13:57:36;9.30;;;4.27;;
8100;SDS011;4093;53.470;9.832;2024-02-16T14:00:07;7.22;;;4.43;;
8100;SDS011;4093;53.470;9.832;2024-02-16T14:02:35;8.00;;;4.20;;
8100;SDS011;4093;53.470;9.832;2024-02-16T14:05:03;7.33;;;4.50;;
8100;SDS011;4093;53.470;9.832;2024-02-16T14:07:31;7.38;;;3.90;;
8100;SDS011;4093;53.470;9.832;2024-02-16T14:10:11;11.63;;;4.63;;
8100;SDS011;4093;53.470;9.832;2024-02-16T14:12:40;5.40;;;4.10;;
8100;SDS011;4093;53.470;9.832;2024-02-16T14:15:08;6.37;;;4.37;;
8100;SDS011;4093;53.470;9.832;2024-02-16T14:17:42;5.97;;;4.50;;
8100;SDS011;4093;53.470;9.832;2024-02-16T14:20:10;8.10;;;4.40;;
8100;SDS011;4093;53.470;9.832;2024-02-16T14:22:38;8.13;;;4.87;;
8100;SDS011;4093;53.470;9.832;2024-02-16T14:25:06;5.75;;;4.40;;
8100;SDS011;4093;53.470;9.832;2024-02-16T14:27:36;7.53;;;4.90;;
8100;SDS011;4093;53.470;9.832;2024-02-16T14:30:06;5.80;;;4.45;;
8100;SDS011;4093;53.470;9.832;2024-02-16T14:32:35;9.23;;;4.97;;
8100;SDS011;4093;53.470;9.832;2024-02-16T14:35:03;9.05;;;4.68;;
8100;SDS011;4093;53.470;9.832;2024-02-16T14:37:33;8.35;;;5.13;;
8100;SDS011;4093;53.470;9.832;2024-02-16T14:40:01;7.40;;;5.20;;
8100;SDS011;4093;53.470;9.832;2024-02-16T14:42:30;5.88;;;4.90;;
8100;SDS011;4093;53.470;9.832;2024-02-16T14:44:58;7.38;;;4.93;;
8100;SDS011;4093;53.470;9.832;2024-02-16T14:47:27;13.38;;;6.03;;
8100;SDS011;4093;53.470;9.832;2024-02-16T14:49:55;8.35;;;5.30;;
8100;SDS011;4093;53.470;9.832;2024-02-16T14:52:23;7.88;;;4.80;;
8100;SDS011;4093;53.470;9.832;2024-02-16T14:54:50;7.03;;;5.27;;
8100;SDS011;4093;53.470;9.832;2024-02-16T14:57:18;7.07;;;5.53;;
8100;SDS011;4093;53.470;9.832;2024-02-16T14:59:49;8.85;;;5.88;;
8100;SDS011;4093;53.470;9.832;2024-02-16T15:02:18;8.27;;;5.97;;
8100;SDS011;4093;53.470;9.832;2024-02-16T15:04:48;9.23;;;6.40;;
8100;SDS011;4093;53.470;9.832;2024-02-16T15:07:18;9.07;;;6.07;;
8100;SDS011;4093;53.470;9.832;2024-02-16T15:09:46;12.03;;;7.03;;
8100;SDS011;4093;53.470;9.832;2024-02-16T15:12:14;10.37;;;7.53;;
8100;SDS011;4093;53.470;9.832;2024-02-16T15:14:45;8.83;;;7.37;;
8100;SDS011;4093;53.470;9.832;2024-02-16T15:17:14;10.23;;;6.90;;
8100;SDS011;4093;53.470;9.832;2024-02-16T15:19:41;8.80;;;7.90;;
8100;SDS011;4093;53.470;9.832;2024-02-16T15:22:11;8.97;;;7.63;;
8100;SDS011;4093;53.470;9.832;2024-02-16T15:24:39;11.47;;;7.93;;